createdAt,value
2022-08-22T00:00:55.069Z,0
2022-08-22T00:01:55.097Z,0
2022-08-22T00:03:05.268Z,0
2022-08-22T00:03:55.235Z,0
2022-08-22T00:04:55.039Z,0
2022-08-22T00:05:55.170Z,0
2022-08-22T00:06:55.550Z,0
2022-08-22T00:07:55.766Z,0
2022-08-22T00:08:56.172Z,0
2022-08-22T00:09:56.461Z,0
2022-08-22T00:10:55.820Z,0
2022-08-22T00:11:55.060Z,0
2022-08-22T00:12:55.066Z,0
2022-08-22T00:14:01.191Z,0
2022-08-22T00:14:55.096Z,0
2022-08-22T00:15:55.140Z,0
2022-08-22T00:16:55.067Z,0
2022-08-22T00:17:55.120Z,0
2022-08-22T00:18:55.062Z,0
2022-08-22T00:19:55.114Z,0
2022-08-22T00:20:55.053Z,0
2022-08-22T00:21:55.067Z,0
2022-08-22T00:22:55.064Z,0
2022-08-22T00:23:55.071Z,0
2022-08-22T00:24:55.072Z,0
2022-08-22T00:25:55.070Z,0
2022-08-22T00:26:55.071Z,0
2022-08-22T00:27:55.130Z,0
2022-08-22T00:28:55.114Z,0
2022-08-22T00:29:55.073Z,0
2022-08-22T00:30:55.069Z,0
2022-08-22T00:31:55.156Z,0
2022-08-22T00:32:55.041Z,0
2022-08-22T00:33:55.132Z,0
2022-08-22T00:34:55.063Z,0
2022-08-22T00:35:55.163Z,0
2022-08-22T00:36:55.140Z,0
2022-08-22T00:37:55.859Z,0
2022-08-22T00:38:55.075Z,0
2022-08-22T00:39:55.451Z,0
2022-08-22T00:40:55.041Z,0
2022-08-22T00:41:55.294Z,0
2022-08-22T00:42:55.132Z,0
2022-08-22T00:43:55.040Z,0
2022-08-22T00:44:55.189Z,0
2022-08-22T00:45:55.033Z,0
2022-08-22T00:46:55.207Z,0
2022-08-22T00:47:55.383Z,0
2022-08-22T00:48:55.516Z,0
2022-08-22T00:49:55.160Z,0
2022-08-22T00:50:55.444Z,0
2022-08-22T00:51:55.168Z,0
2022-08-22T00:52:55.229Z,0
2022-08-22T00:53:55.474Z,0
2022-08-22T00:54:55.034Z,0
2022-08-22T00:55:55.056Z,0
2022-08-22T00:56:55.090Z,0
2022-08-22T00:57:55.437Z,0
2022-08-22T00:58:55.664Z,0
2022-08-22T00:59:56.147Z,0
2022-08-22T01:00:55.143Z,0
2022-08-22T01:01:55.348Z,0
2022-08-22T01:02:55.065Z,0
2022-08-22T01:03:55.054Z,0
2022-08-22T01:04:55.089Z,0
2022-08-22T01:05:55.049Z,0
2022-08-22T01:06:55.069Z,0
2022-08-22T01:07:55.168Z,0
2022-08-22T01:08:55.088Z,0
2022-08-22T01:09:55.177Z,0
2022-08-22T01:10:55.231Z,0
2022-08-22T01:11:55.056Z,0
2022-08-22T01:12:55.079Z,0
2022-08-22T01:13:55.067Z,0
2022-08-22T01:14:55.082Z,0
2022-08-22T01:15:55.084Z,0
2022-08-22T01:16:55.058Z,0
2022-08-22T01:17:55.099Z,0
2022-08-22T01:18:55.078Z,0
2022-08-22T01:19:55.076Z,0
2022-08-22T01:20:55.215Z,0
2022-08-22T01:21:55.082Z,0
2022-08-22T01:22:55.068Z,0
2022-08-22T01:23:55.060Z,0
2022-08-22T01:24:55.065Z,0
2022-08-22T01:25:55.087Z,0
2022-08-22T01:26:55.118Z,0
2022-08-22T01:27:55.062Z,0
2022-08-22T01:28:55.071Z,0
2022-08-22T01:29:55.078Z,0
2022-08-22T01:30:55.103Z,0
2022-08-22T01:31:55.213Z,0
2022-08-22T01:32:56.833Z,0
2022-08-22T01:33:55.065Z,0
2022-08-22T01:34:55.060Z,0
2022-08-22T01:35:55.066Z,0
2022-08-22T01:36:55.091Z,0
2022-08-22T01:37:55.128Z,0
2022-08-22T01:38:55.073Z,0
2022-08-22T01:39:55.141Z,0
2022-08-22T01:40:55.059Z,0
2022-08-22T01:41:55.115Z,0
2022-08-22T01:42:55.179Z,0
2022-08-22T01:43:59.512Z,0
2022-08-22T01:44:55.060Z,0
2022-08-22T01:45:55.058Z,0
2022-08-22T01:46:55.094Z,0
2022-08-22T01:47:55.157Z,0
2022-08-22T01:48:55.066Z,0
2022-08-22T01:49:55.057Z,0
2022-08-22T01:50:55.058Z,0
2022-08-22T01:51:55.090Z,0
2022-08-22T01:52:55.069Z,0
2022-08-22T01:53:55.080Z,0
2022-08-22T01:54:55.078Z,0
2022-08-22T01:55:55.066Z,0
2022-08-22T01:56:55.085Z,0
2022-08-22T01:57:55.162Z,0
2022-08-22T01:58:55.061Z,0
2022-08-22T01:59:55.064Z,0
2022-08-22T02:00:55.128Z,0
2022-08-22T02:01:55.087Z,0
2022-08-22T02:02:55.075Z,0
2022-08-22T02:03:55.086Z,0
2022-08-22T02:04:55.089Z,0
2022-08-22T02:05:55.079Z,0
2022-08-22T02:06:55.129Z,0
2022-08-22T02:07:55.056Z,0
2022-08-22T02:08:55.061Z,0
2022-08-22T02:09:55.064Z,0
2022-08-22T02:10:55.067Z,0
2022-08-22T02:11:55.097Z,0
2022-08-22T02:12:55.074Z,0
2022-08-22T02:13:55.079Z,0
2022-08-22T02:14:55.065Z,0
2022-08-22T02:15:55.060Z,0
2022-08-22T02:16:55.161Z,0
2022-08-22T02:17:55.059Z,0
2022-08-22T02:18:55.062Z,0
2022-08-22T02:19:55.106Z,0
2022-08-22T02:20:55.075Z,0
2022-08-22T02:21:55.097Z,0
2022-08-22T02:22:55.055Z,0
2022-08-22T02:23:55.492Z,0
2022-08-22T02:24:55.066Z,0
2022-08-22T02:25:55.143Z,0
2022-08-22T02:26:55.046Z,0
2022-08-22T02:27:55.219Z,0
2022-08-22T02:28:56.854Z,0
2022-08-22T02:29:55.555Z,0
2022-08-22T02:30:55.061Z,0
2022-08-22T02:31:55.060Z,0
2022-08-22T02:32:55.069Z,0
2022-08-22T02:33:55.059Z,0
2022-08-22T02:34:55.083Z,0
2022-08-22T02:35:55.070Z,0
2022-08-22T02:36:55.056Z,0
2022-08-22T02:37:55.126Z,0
2022-08-22T02:38:55.080Z,0
2022-08-22T02:39:55.378Z,0
2022-08-22T02:40:55.065Z,0
2022-08-22T02:41:55.064Z,0
2022-08-22T02:42:55.077Z,0
2022-08-22T02:43:55.068Z,0
2022-08-22T02:44:55.099Z,0
2022-08-22T02:45:55.072Z,0
2022-08-22T02:46:55.064Z,0
2022-08-22T02:47:55.088Z,0
2022-08-22T02:48:55.103Z,0
2022-08-22T02:49:55.125Z,0
2022-08-22T02:50:55.091Z,0
2022-08-22T02:51:55.062Z,0
2022-08-22T02:52:55.061Z,0
2022-08-22T02:53:55.052Z,0
2022-08-22T02:54:55.061Z,0
2022-08-22T02:55:55.067Z,0
2022-08-22T02:56:55.062Z,0
2022-08-22T02:57:55.103Z,0
2022-08-22T02:58:55.767Z,0
2022-08-22T02:59:55.057Z,0
2022-08-22T03:00:55.077Z,0
2022-08-22T03:01:55.093Z,0
2022-08-22T03:02:55.082Z,0
2022-08-22T03:03:55.064Z,0
2022-08-22T03:04:55.062Z,0
2022-08-22T03:05:57.902Z,0
2022-08-22T03:06:55.065Z,0
2022-08-22T03:07:55.065Z,0
2022-08-22T03:08:55.068Z,0
2022-08-22T03:09:55.052Z,0
2022-08-22T03:10:55.070Z,0
2022-08-22T03:11:55.078Z,0
2022-08-22T03:12:57.474Z,0
2022-08-22T03:13:55.073Z,0
2022-08-22T03:14:55.061Z,0
2022-08-22T03:15:55.059Z,0
2022-08-22T03:16:55.083Z,0
2022-08-22T03:17:55.159Z,0
2022-08-22T03:18:55.068Z,0
2022-08-22T03:19:55.081Z,0
2022-08-22T03:20:55.065Z,0
2022-08-22T03:21:55.143Z,0
2022-08-22T03:22:55.042Z,0
2022-08-22T03:23:55.540Z,0
2022-08-22T03:24:55.835Z,0
2022-08-22T03:25:55.546Z,0
2022-08-22T03:26:55.071Z,0
2022-08-22T03:27:55.059Z,0
2022-08-22T03:28:59.633Z,0
2022-08-22T03:29:55.131Z,0
2022-08-22T03:30:55.059Z,0
2022-08-22T03:31:55.065Z,0
2022-08-22T03:32:55.077Z,0
2022-08-22T03:33:55.070Z,0
2022-08-22T03:34:55.061Z,0
2022-08-22T03:35:55.065Z,0
2022-08-22T03:36:55.101Z,0
2022-08-22T03:37:55.080Z,0
2022-08-22T03:38:55.072Z,0
2022-08-22T03:39:55.132Z,0.23
2022-08-22T03:40:55.043Z,0.23
2022-08-22T03:41:55.165Z,0.23
2022-08-22T03:42:55.034Z,0.23
2022-08-22T03:43:55.039Z,0.46
2022-08-22T03:44:55.105Z,0.46
2022-08-22T03:45:55.379Z,0.46
2022-08-22T03:46:55.189Z,0.69
2022-08-22T03:47:55.175Z,0.92
2022-08-22T03:48:55.420Z,0.92
2022-08-22T03:49:59.303Z,1.15
2022-08-22T03:50:55.313Z,1.38
2022-08-22T03:51:55.081Z,1.84
2022-08-22T03:52:55.346Z,2.07
2022-08-22T03:53:55.042Z,2.53
2022-08-22T03:54:55.055Z,2.76
2022-08-22T03:55:55.148Z,3.22
2022-08-22T03:56:56.021Z,3.91
2022-08-22T03:57:55.244Z,4.6
2022-08-22T03:58:55.038Z,5.52
2022-08-22T03:59:55.161Z,6.44
2022-08-22T04:00:56.036Z,7.59
2022-08-22T04:01:55.094Z,8.74
2022-08-22T04:02:55.035Z,36.67
2022-08-22T04:03:55.050Z,11.67
2022-08-22T04:04:55.172Z,13.33
2022-08-22T04:05:55.060Z,15.83
2022-08-22T04:06:56.476Z,19.17
2022-08-22T04:07:55.187Z,22.5
2022-08-22T04:08:55.405Z,25.83
2022-08-22T04:09:55.115Z,30
2022-08-22T04:10:55.399Z,35
2022-08-22T04:11:55.087Z,40
2022-08-22T04:12:55.052Z,45
2022-08-22T04:13:55.059Z,51.67
2022-08-22T04:14:55.246Z,57.5
2022-08-22T04:15:55.070Z,65.83
2022-08-22T04:16:55.135Z,74.17
2022-08-22T04:17:55.093Z,84.17
2022-08-22T04:18:55.198Z,95
2022-08-22T04:19:55.063Z,106.67
2022-08-22T04:20:55.054Z,121.67
2022-08-22T04:21:55.086Z,139.17
2022-08-22T04:22:55.111Z,159.17
2022-08-22T04:23:55.043Z,178.33
2022-08-22T04:24:55.190Z,199.17
2022-08-22T04:25:55.077Z,219.17
2022-08-22T04:26:55.296Z,240
2022-08-22T04:27:55.133Z,261.67
2022-08-22T04:28:55.073Z,282.5
2022-08-22T04:29:55.099Z,305.83
2022-08-22T04:30:55.072Z,327.5
2022-08-22T04:31:55.099Z,350
2022-08-22T04:32:55.069Z,372.5
2022-08-22T04:33:55.076Z,394.17
2022-08-22T04:34:55.050Z,416.67
2022-08-22T04:35:55.085Z,440
2022-08-22T04:36:55.085Z,464.17
2022-08-22T04:37:55.208Z,488.33
2022-08-22T04:38:55.065Z,515
2022-08-22T04:39:55.123Z,541.67
2022-08-22T04:40:55.090Z,570
2022-08-22T04:41:58.345Z,601.67
2022-08-22T04:42:55.062Z,636.67
2022-08-22T04:43:55.069Z,664.17
2022-08-22T04:44:55.061Z,689.17
2022-08-22T04:45:55.065Z,711.67
2022-08-22T04:46:55.098Z,738.33
2022-08-22T04:47:55.125Z,761.67
2022-08-22T04:48:55.071Z,785
2022-08-22T04:49:55.103Z,803.33
2022-08-22T04:50:55.089Z,817.5
2022-08-22T04:51:55.212Z,830
2022-08-22T04:52:55.060Z,840.83
2022-08-22T04:53:55.061Z,853.33
2022-08-22T04:54:55.085Z,869.17
2022-08-22T04:55:55.065Z,889.17
2022-08-22T04:56:55.061Z,911.67
2022-08-22T04:57:55.109Z,936.67
2022-08-22T04:58:55.084Z,962.5
2022-08-22T04:59:55.096Z,990.83
2022-08-22T05:00:55.071Z,1025.83
2022-08-22T05:01:55.175Z,1069.17
2022-08-22T05:02:55.064Z,1120
2022-08-22T05:03:55.056Z,1177.5
2022-08-22T05:04:55.096Z,1245.83
2022-08-22T05:05:55.078Z,1330.83
2022-08-22T05:06:55.074Z,1427.5
2022-08-22T05:07:55.096Z,1530
2022-08-22T05:08:55.066Z,1636.67
2022-08-22T05:09:55.091Z,1740.83
2022-08-22T05:10:55.087Z,1811.67
2022-08-22T05:11:55.076Z,1875.83
2022-08-22T05:12:55.073Z,1913.33
2022-08-22T05:13:55.180Z,1945.83
2022-08-22T05:14:55.066Z,1985
2022-08-22T05:15:55.052Z,2029.17
2022-08-22T05:16:55.074Z,2100.83
2022-08-22T05:17:55.104Z,2182.5
2022-08-22T05:18:55.077Z,2271.67
2022-08-22T05:19:55.123Z,2322.5
2022-08-22T05:20:55.073Z,2375.83
2022-08-22T05:21:55.073Z,2415
2022-08-22T05:22:55.075Z,2440
2022-08-22T05:23:55.083Z,2473.33
2022-08-22T05:24:55.088Z,2490.83
2022-08-22T05:25:55.064Z,2522.5
2022-08-22T05:26:55.061Z,2548.33
2022-08-22T05:27:56.376Z,2564.17
2022-08-22T05:28:55.058Z,2571.67
2022-08-22T05:29:55.100Z,2575
2022-08-22T05:30:55.078Z,2620
2022-08-22T05:31:55.059Z,2697.5
2022-08-22T05:32:55.060Z,2850
2022-08-22T05:33:55.074Z,3038.33
2022-08-22T05:34:55.134Z,3266.67
2022-08-22T05:35:57.827Z,3405.83
2022-08-22T05:36:55.047Z,3518.33
2022-08-22T05:37:55.104Z,3520
2022-08-22T05:38:55.286Z,3515.83
2022-08-22T05:39:55.118Z,3460
2022-08-22T05:40:55.130Z,3375.83
2022-08-22T05:41:55.375Z,3306.67
2022-08-22T05:42:55.162Z,3216.67
2022-08-22T05:43:55.075Z,3141.67
2022-08-22T05:44:55.289Z,3076.67
2022-08-22T05:45:55.073Z,3079.17
2022-08-22T05:46:55.189Z,3063.33
2022-08-22T05:47:55.086Z,3054.17
2022-08-22T05:48:55.060Z,3030.83
2022-08-22T05:49:55.079Z,3081.67
2022-08-22T05:50:55.077Z,3214.17
2022-08-22T05:51:55.062Z,3360
2022-08-22T05:52:55.072Z,3582.5
2022-08-22T05:53:55.069Z,3761.67
2022-08-22T05:54:55.085Z,4042.5
2022-08-22T05:55:55.080Z,4430.83
2022-08-22T05:56:55.082Z,4741.67
2022-08-22T05:57:55.286Z,5045
2022-08-22T05:58:55.062Z,5042.5
2022-08-22T05:59:55.101Z,4927.5
2022-08-22T06:00:55.054Z,4870.83
2022-08-22T06:01:55.114Z,4812.5
2022-08-22T06:02:55.073Z,4822.5
2022-08-22T06:03:55.076Z,4787.5
2022-08-22T06:04:55.078Z,4715.83
2022-08-22T06:05:55.073Z,4765
2022-08-22T06:06:55.073Z,4696.67
2022-08-22T06:07:55.146Z,4602.5
2022-08-22T06:08:55.090Z,4493.33
2022-08-22T06:09:55.077Z,4201.67
2022-08-22T06:10:55.061Z,3999.17
2022-08-22T06:11:55.062Z,3707.5
2022-08-22T06:12:55.061Z,3551.67
2022-08-22T06:13:55.061Z,3328.33
2022-08-22T06:14:55.059Z,3243.33
2022-08-22T06:15:55.063Z,3109.17
2022-08-22T06:16:55.065Z,3103.33
2022-08-22T06:17:55.168Z,2917.5
2022-08-22T06:18:55.165Z,2990
2022-08-22T06:19:55.067Z,3046.67
2022-08-22T06:20:55.074Z,3093.33
2022-08-22T06:21:55.082Z,3208.33
2022-08-22T06:22:55.067Z,3292.5
2022-08-22T06:23:55.061Z,3409.17
2022-08-22T06:24:55.076Z,3373.33
2022-08-22T06:25:55.066Z,3475.83
2022-08-22T06:26:55.058Z,3496.67
2022-08-22T06:27:55.083Z,3569.17
2022-08-22T06:28:55.496Z,3817.5
2022-08-22T06:29:55.217Z,3828.33
2022-08-22T06:30:55.069Z,3690
2022-08-22T06:31:55.065Z,3970.83
2022-08-22T06:32:59.716Z,3968.33
2022-08-22T06:33:55.074Z,4004.17
2022-08-22T06:34:55.255Z,4005
2022-08-22T06:35:55.769Z,4039.17
2022-08-22T06:36:55.815Z,4109.17
2022-08-22T06:37:56.042Z,4205
2022-08-22T06:38:56.385Z,4342.5
2022-08-22T06:39:55.834Z,4505.83
2022-08-22T06:40:55.218Z,4848.33
2022-08-22T06:41:55.067Z,5015.83
2022-08-22T06:42:55.082Z,5139.17
2022-08-22T06:43:55.061Z,5215.83
2022-08-22T06:44:55.070Z,5223.33
2022-08-22T06:45:55.062Z,5199.17
2022-08-22T06:46:55.047Z,5234.17
2022-08-22T06:47:57.125Z,5359.17
2022-08-22T06:48:55.060Z,5493.33
2022-08-22T06:49:55.121Z,5815.83
2022-08-22T06:50:55.083Z,7204.17
2022-08-22T06:51:55.085Z,11141.67
2022-08-22T06:52:55.086Z,11296.67
2022-08-22T06:53:55.071Z,11643.33
2022-08-22T06:54:55.074Z,12275.83
2022-08-22T06:55:55.049Z,12626.67
2022-08-22T06:56:55.063Z,12829.17
2022-08-22T06:57:55.155Z,12845.83
2022-08-22T06:58:55.058Z,13055.83
2022-08-22T06:59:55.069Z,12779.17
2022-08-22T07:01:11.074Z,13130
2022-08-22T07:01:55.124Z,13663.33
2022-08-22T07:02:55.225Z,13840.83
2022-08-22T07:03:55.044Z,14120
2022-08-22T07:04:55.057Z,14213.33
2022-08-22T07:05:55.061Z,14221.67
2022-08-22T07:06:55.063Z,14255
2022-08-22T07:07:55.162Z,14276.67
2022-08-22T07:08:55.074Z,14380.83
2022-08-22T07:09:55.070Z,14556.67
2022-08-22T07:10:55.064Z,14666.67
2022-08-22T07:11:55.072Z,14423.33
2022-08-22T07:12:55.106Z,14606.67
2022-08-22T07:13:55.075Z,14556.67
2022-08-22T07:14:55.059Z,7372.5
2022-08-22T07:15:55.057Z,15012.5
2022-08-22T07:16:55.061Z,15293.33
2022-08-22T07:17:55.076Z,15427.5
2022-08-22T07:18:55.088Z,15524.17
2022-08-22T07:19:55.121Z,15217.5
2022-08-22T07:20:55.310Z,15608.33
2022-08-22T07:21:55.181Z,15537.5
2022-08-22T07:22:55.384Z,15584.17
2022-08-22T07:23:55.680Z,15523.33
2022-08-22T07:24:55.207Z,15547.5
2022-08-22T07:25:55.605Z,15800
2022-08-22T07:26:55.055Z,15910
2022-08-22T07:27:55.098Z,15804.17
2022-08-22T07:28:57.824Z,15640.83
2022-08-22T07:29:55.384Z,15490
2022-08-22T07:30:55.083Z,15700
2022-08-22T07:31:55.076Z,15512.5
2022-08-22T07:32:55.080Z,14015.83
2022-08-22T07:33:55.116Z,10465.83
2022-08-22T07:34:55.083Z,13240.83
2022-08-22T07:35:55.062Z,15545.83
2022-08-22T07:36:55.067Z,15543.33
2022-08-22T07:37:55.158Z,15337.5
2022-08-22T07:38:55.064Z,15501.67
2022-08-22T07:39:55.150Z,15695.83
2022-08-22T07:40:55.058Z,15692.5
2022-08-22T07:41:55.343Z,15626.67
2022-08-22T07:42:55.059Z,15595.83
2022-08-22T07:43:55.071Z,15330.83
2022-08-22T07:44:55.095Z,15410.83
2022-08-22T07:45:55.063Z,15490.83
2022-08-22T07:46:55.065Z,15355
2022-08-22T07:47:55.062Z,15475
2022-08-22T07:49:08.440Z,15500
2022-08-22T07:49:55.086Z,15443.33
2022-08-22T07:50:55.065Z,15501.67
2022-08-22T07:51:55.066Z,15434.17
2022-08-22T07:52:55.081Z,15500.83
2022-08-22T07:53:57.980Z,15575
2022-08-22T07:54:55.097Z,15769.17
2022-08-22T07:55:55.080Z,15873.33
2022-08-22T07:56:55.060Z,16008.33
2022-08-22T07:57:55.086Z,16164.17
2022-08-22T07:58:55.090Z,16306.67
2022-08-22T07:59:55.061Z,16671.67
2022-08-22T08:00:55.062Z,8111.67
2022-08-22T08:01:55.090Z,8524.17
2022-08-22T08:02:55.067Z,18212.5
2022-08-22T08:03:55.118Z,7415
2022-08-22T08:04:55.092Z,7541.67
2022-08-22T08:05:55.155Z,18267.5
2022-08-22T08:06:55.077Z,12917.5
2022-08-22T08:07:55.091Z,8084.17
2022-08-22T08:08:55.080Z,9675.83
2022-08-22T08:09:55.054Z,9527.5
2022-08-22T08:10:55.065Z,16320.83
2022-08-22T08:11:55.063Z,8096.67
2022-08-22T08:13:02.144Z,20067.5
2022-08-22T08:13:55.085Z,17730.83
2022-08-22T08:14:55.075Z,8008.33
2022-08-22T08:15:55.069Z,18975
2022-08-22T08:16:55.070Z,21008.33
2022-08-22T08:17:55.212Z,11115
2022-08-22T08:18:55.085Z,9670
2022-08-22T08:19:55.068Z,19801.67
2022-08-22T08:20:55.062Z,18425.83
2022-08-22T08:21:55.055Z,20066.67
2022-08-22T08:22:55.065Z,21970
2022-08-22T08:23:55.081Z,20766.67
2022-08-22T08:24:55.068Z,18922.5
2022-08-22T08:25:55.056Z,21760
2022-08-22T08:26:55.070Z,20807.5
2022-08-22T08:27:55.104Z,20935.83
2022-08-22T08:28:55.111Z,20570.83
2022-08-22T08:29:55.049Z,19145.83
2022-08-22T08:30:55.176Z,21377.5
2022-08-22T08:31:55.043Z,21552.5
2022-08-22T08:32:57.315Z,21610
2022-08-22T08:33:55.077Z,21604.17
2022-08-22T08:34:55.056Z,21627.5
2022-08-22T08:35:57.556Z,21876.67
2022-08-22T08:36:55.041Z,22151.67
2022-08-22T08:37:55.214Z,22400
2022-08-22T08:38:55.611Z,22635.83
2022-08-22T08:39:55.209Z,22613.33
2022-08-22T08:40:55.465Z,22875
2022-08-22T08:41:55.071Z,22966.67
2022-08-22T08:42:55.366Z,23124.17
2022-08-22T08:43:55.228Z,23256.67
2022-08-22T08:44:55.046Z,23290.83
2022-08-22T08:45:56.466Z,23447.5
2022-08-22T08:46:56.015Z,23412.5
2022-08-22T08:47:55.208Z,23345
2022-08-22T08:48:55.153Z,23231.67
2022-08-22T08:49:55.158Z,23160
2022-08-22T08:50:55.044Z,23190
2022-08-22T08:51:55.363Z,23308.33
2022-08-22T08:52:55.038Z,23139.17
2022-08-22T08:53:55.171Z,23196.67
2022-08-22T08:54:55.371Z,23019.17
2022-08-22T08:55:55.113Z,23072.5
2022-08-22T08:56:55.205Z,23362.5
2022-08-22T08:57:55.464Z,23213.33
2022-08-22T08:58:55.071Z,22630.83
2022-08-22T08:59:55.304Z,22880
2022-08-22T09:00:55.114Z,22783.33
2022-08-22T09:01:55.091Z,22634.17
2022-08-22T09:02:55.061Z,22571.67
2022-08-22T09:03:55.060Z,22455
2022-08-22T09:04:55.063Z,22535
2022-08-22T09:05:55.068Z,22508.33
2022-08-22T09:06:56.613Z,22439.17
2022-08-22T09:07:55.077Z,22452.5
2022-08-22T09:09:55.062Z,22277.5
2022-08-22T09:10:55.069Z,22340
2022-08-22T09:11:55.087Z,22476.67
2022-08-22T09:12:56.499Z,22459.17
2022-08-22T09:13:55.067Z,22603.33
2022-08-22T09:14:55.065Z,22643.33
2022-08-22T09:16:55.064Z,22525
2022-08-22T09:17:55.126Z,22590.83
2022-08-22T09:18:55.064Z,22594.17
2022-08-22T09:19:55.056Z,22780
2022-08-22T09:20:55.061Z,22772.5
2022-08-22T09:21:55.075Z,22885
2022-08-22T09:22:55.163Z,22991.67
2022-08-22T09:23:55.069Z,23155
2022-08-22T09:24:55.078Z,23212.5
2022-08-22T09:25:55.064Z,23236.67
2022-08-22T09:26:57.106Z,23275
2022-08-22T09:27:55.056Z,23333.33
2022-08-22T09:28:55.060Z,23475
2022-08-22T09:29:57.208Z,23583.33
2022-08-22T09:30:55.083Z,23860
2022-08-22T09:31:58.315Z,23955
2022-08-22T09:32:55.187Z,24325
2022-08-22T09:33:55.074Z,24665
2022-08-22T09:34:55.062Z,24395.83
2022-08-22T09:35:55.063Z,21969.17
2022-08-22T09:36:55.070Z,21775
2022-08-22T09:37:55.145Z,23972.5
2022-08-22T09:38:55.074Z,23807.5
2022-08-22T09:39:55.439Z,24293.33
2022-08-22T09:40:55.059Z,24207.5
2022-08-22T09:41:55.063Z,24285.83
2022-08-22T09:42:55.070Z,24349.17
2022-08-22T09:43:55.064Z,24475
2022-08-22T09:44:55.120Z,24586.67
2022-08-22T09:45:55.068Z,24682.5
2022-08-22T09:46:55.035Z,24724.17
2022-08-22T09:47:55.400Z,24775.83
2022-08-22T09:48:55.519Z,24691.67
2022-08-22T09:49:55.763Z,24749.17
2022-08-22T09:51:08.370Z,24697.5
2022-08-22T09:51:55.728Z,24845.83
2022-08-22T09:52:55.052Z,24854.17
2022-08-22T09:53:55.072Z,24978.33
2022-08-22T09:54:55.091Z,24976.67
2022-08-22T09:55:55.111Z,25021.67
2022-08-22T09:56:55.062Z,25057.5
2022-08-22T09:57:55.057Z,25029.17
2022-08-22T09:58:55.062Z,24982.5
2022-08-22T09:59:55.089Z,25145.83
2022-08-22T10:00:55.150Z,25173.33
2022-08-22T10:01:55.064Z,25179.17
2022-08-22T10:02:55.139Z,25185.83
2022-08-22T10:03:55.082Z,25119.17
2022-08-22T10:04:55.152Z,25115
2022-08-22T10:05:55.067Z,25110.83
2022-08-22T10:06:55.077Z,25172.5
2022-08-22T10:07:55.073Z,25255
2022-08-22T10:08:55.064Z,25264.17
2022-08-22T10:09:55.095Z,25450.83
2022-08-22T10:10:55.063Z,25576.67
2022-08-22T10:11:55.067Z,25725
2022-08-22T10:12:55.068Z,25256.67
2022-08-22T10:14:00.595Z,25760
2022-08-22T10:14:55.079Z,25881.67
2022-08-22T10:15:55.103Z,25893.33
2022-08-22T10:16:55.082Z,26019.17
2022-08-22T10:17:55.079Z,26284.17
2022-08-22T10:18:57.945Z,26340.83
2022-08-22T10:19:55.089Z,26487.5
2022-08-22T10:20:55.056Z,26690
2022-08-22T10:21:55.054Z,26889.17
2022-08-22T10:22:55.059Z,27055
2022-08-22T10:23:55.063Z,27175.83
2022-08-22T10:24:55.092Z,27299.17
2022-08-22T10:25:55.066Z,27519.17
2022-08-22T10:26:55.071Z,27851.67
2022-08-22T10:27:55.073Z,28132.5
2022-08-22T10:28:55.185Z,28649.17
2022-08-22T10:29:55.076Z,29270.83
2022-08-22T10:30:55.068Z,29943.33
2022-08-22T10:31:58.822Z,29280.83
2022-08-22T10:32:55.159Z,28323.33
2022-08-22T10:33:55.037Z,28368.33
2022-08-22T10:34:55.244Z,31968.33
2022-08-22T10:35:55.481Z,32739.17
2022-08-22T10:36:55.179Z,30680.83
2022-08-22T10:37:55.039Z,30907.5
2022-08-22T10:38:55.355Z,31438.33
2022-08-22T10:39:55.815Z,27878.33
2022-08-22T10:40:55.055Z,26507.5
2022-08-22T10:41:55.217Z,26226.67
2022-08-22T10:42:55.064Z,26881.67
2022-08-22T10:43:56.394Z,27397.5
2022-08-22T10:44:55.094Z,28612.5
2022-08-22T10:45:55.066Z,31200
2022-08-22T10:46:55.066Z,30772.5
2022-08-22T10:47:55.056Z,32083.33
2022-08-22T10:48:55.072Z,32071.67
2022-08-22T10:49:55.519Z,32126.67
2022-08-22T10:50:55.310Z,25068.33
2022-08-22T10:51:55.042Z,28610.83
2022-08-22T10:52:55.093Z,22683.33
2022-08-22T10:53:55.063Z,24019.17
2022-08-22T10:54:55.117Z,22341.67
2022-08-22T10:55:55.224Z,24187.5
2022-08-22T10:56:55.077Z,25827.5
2022-08-22T10:57:55.077Z,25119.17
2022-08-22T10:58:55.084Z,28912.5
2022-08-22T10:59:55.079Z,28814.17
2022-08-22T11:00:55.229Z,29266.67
2022-08-22T11:01:55.255Z,24754.17
2022-08-22T11:02:55.081Z,28734.17
2022-08-22T11:03:55.067Z,27912.5
2022-08-22T11:04:55.093Z,30593.33
2022-08-22T11:05:55.063Z,30865.83
2022-08-22T11:06:55.071Z,30688.33
2022-08-22T11:07:55.072Z,30715
2022-08-22T11:08:55.064Z,29200.83
2022-08-22T11:09:55.170Z,30930
2022-08-22T11:10:55.086Z,31761.67
2022-08-22T11:11:55.127Z,31950.83
2022-08-22T11:12:55.241Z,27674.17
2022-08-22T11:13:55.066Z,28058.33
2022-08-22T11:14:55.079Z,33330.83
2022-08-22T11:15:55.060Z,32625.83
2022-08-22T11:16:55.512Z,32860.83
2022-08-22T11:17:55.055Z,33235.83
2022-08-22T11:18:58.098Z,34024.16
2022-08-22T11:19:55.087Z,34655
2022-08-22T11:20:55.067Z,34817.5
2022-08-22T11:21:55.075Z,35109.16
2022-08-22T11:22:58.118Z,35358.33
2022-08-22T11:23:55.141Z,35520
2022-08-22T11:24:57.109Z,35520
2022-08-22T11:25:55.072Z,35520
2022-08-22T11:26:55.065Z,37750
2022-08-22T11:27:55.065Z,37540
2022-08-22T11:28:55.059Z,26636.67
2022-08-22T11:29:55.094Z,16991.67
2022-08-22T11:30:55.067Z,15110
2022-08-22T11:31:55.065Z,16495
2022-08-22T11:32:57.868Z,29383.33
2022-08-22T11:33:55.080Z,44046.8
2022-08-22T11:34:55.447Z,43541.88
2022-08-22T11:35:55.930Z,44603.83
2022-08-22T11:36:55.067Z,45455.55
2022-08-22T11:37:56.460Z,45487.89
2022-08-22T11:38:55.059Z,45365.7
2022-08-22T11:39:55.147Z,33197.5
2022-08-22T11:40:55.036Z,47631.56
2022-08-22T11:41:55.160Z,47220.08
2022-08-22T11:42:55.053Z,46867.89
2022-08-22T11:43:55.148Z,46348.59
2022-08-22T11:44:55.064Z,47243.44
2022-08-22T11:45:55.149Z,47832.81
2022-08-22T11:46:55.295Z,48397.03
2022-08-22T11:47:55.446Z,48921.72
2022-08-22T11:48:55.123Z,49363.75
2022-08-22T11:49:55.347Z,49757.26
2022-08-22T11:50:55.567Z,50909.06
2022-08-22T11:51:55.362Z,50810.23
2022-08-22T11:52:55.510Z,51440.93
2022-08-22T11:53:55.385Z,50971.95
2022-08-22T11:54:55.095Z,50682.65
2022-08-22T11:55:55.063Z,51543.36
2022-08-22T11:56:55.043Z,52351.95
2022-08-22T11:57:55.058Z,52465.15
2022-08-22T11:58:55.078Z,52752.65
2022-08-22T11:59:55.171Z,53845.15
2022-08-22T12:00:55.049Z,55041.87
2022-08-22T12:01:55.142Z,56463.2
2022-08-22T12:02:55.051Z,56583.59
2022-08-22T12:03:55.714Z,55530.62
2022-08-22T12:04:55.253Z,56890.86
2022-08-22T12:05:55.086Z,57225.07
2022-08-22T12:06:55.887Z,56948.36
2022-08-22T12:07:55.073Z,57181.95
2022-08-22T12:08:55.166Z,57261.01
2022-08-22T12:09:55.038Z,57553.9
2022-08-22T12:10:55.131Z,56544.06
2022-08-22T12:11:55.365Z,56468.59
2022-08-22T12:12:55.149Z,56389.53
2022-08-22T12:14:02.562Z,55778.59
2022-08-22T12:14:55.159Z,55318.59
2022-08-22T12:15:55.383Z,55041.87
2022-08-22T12:16:55.065Z,54813.67
2022-08-22T12:17:59.910Z,54797.5
2022-08-22T12:18:55.106Z,55147.89
2022-08-22T12:20:14.930Z,55201.79
2022-08-22T12:20:55.104Z,55104.76
2022-08-22T12:21:55.065Z,54053.59
2022-08-22T12:22:55.070Z,53706.79
2022-08-22T12:23:55.072Z,53823.59
2022-08-22T12:24:55.787Z,53809.21
2022-08-22T12:25:55.163Z,54220.7
2022-08-22T12:26:55.073Z,54759.76
2022-08-22T12:27:55.315Z,55255.7
2022-08-22T12:28:55.200Z,55602.5
2022-08-22T12:29:55.074Z,54306.95
2022-08-22T12:30:55.079Z,54398.59
2022-08-22T12:31:55.122Z,56606.95
2022-08-22T12:32:55.118Z,56400.31
2022-08-22T12:33:55.105Z,56612.34
2022-08-22T12:34:55.064Z,56917.81
2022-08-22T12:35:55.066Z,56468.59
2022-08-22T12:36:55.061Z,56795.62
2022-08-22T12:37:55.120Z,56669.84
2022-08-22T12:38:55.341Z,57005.86
2022-08-22T12:39:55.141Z,56486.56
2022-08-22T12:40:55.056Z,55507.26
2022-08-22T12:41:55.059Z,54820.86
2022-08-22T12:42:55.073Z,54783.12
2022-08-22T12:43:55.201Z,52317.81
2022-08-22T12:44:55.055Z,54907.11
2022-08-22T12:45:55.056Z,56486.56
2022-08-22T12:46:55.061Z,57086.71
2022-08-22T12:47:55.150Z,54705.86
2022-08-22T12:48:55.124Z,56468.59
2022-08-22T12:49:55.057Z,10880
2022-08-22T12:50:55.058Z,41173.59
2022-08-22T12:51:55.904Z,20927.5